Time;durP1;ratioP1;P1;durP2;ratioP2;P2;SDS_P1;SDS_P2;PMS_P1;PMS_P2;Temp;Humidity;BMP_temperature;BMP_pressure;BME280_temperature;BME280_humidity;BME280_pressure;Samples;Min_cycle;Max_cycle;Signal;HPM_P1;HPM_P2
2022/10/07 00:02:05;;;;;;;9.63;2.40;;;;;;;14.79;74.15;101582.38;5058407;28;20403;-74
2022/10/07 00:04:31;;;;;;;7.97;2.22;;;;;;;14.79;74.40;101574.19;5064892;28;20401;-74
2022/10/07 00:06:56;;;;;;;4.67;2.30;;;;;;;14.82;74.48;101586.53;5055200;28;20417;-74
2022/10/07 00:09:21;;;;;;;11.43;2.63;;;;;;;14.82;74.51;101578.34;5058723;28;20447;-75
2022/10/07 00:11:46;;;;;;;8.17;2.83;;;;;;;14.72;74.88;101578.97;5063328;28;20881;-75
2022/10/07 00:14:12;;;;;;;10.83;2.70;;;;;;;14.76;74.95;101584.78;5061459;28;20401;-75
2022/10/07 00:16:39;;;;;;;7.13;2.20;;;;;;;14.82;74.72;101583.81;5057081;28;20405;-75
2022/10/07 00:19:12;;;;;;;9.60;2.38;;;;;;;14.87;74.65;101581.16;5052598;28;20925;-75
2022/10/07 00:21:38;;;;;;;6.33;2.60;;;;;;;14.81;75.05;101576.69;5055800;28;20401;-75
2022/10/07 00:24:06;;;;;;;7.03;2.45;;;;;;;14.83;75.12;101574.53;5056673;28;20420;-75
2022/10/07 00:26:33;;;;;;;6.70;2.30;;;;;;;14.88;75.10;101572.75;5049750;28;20450;-75
2022/10/07 00:28:58;;;;;;;6.55;2.38;;;;;;;14.89;74.91;101568.09;5060006;28;20398;-74
2022/10/07 00:31:27;;;;;;;6.10;2.27;;;;;;;14.88;75.11;101561.00;5060051;28;20895;-75
2022/10/07 00:33:54;;;;;;;5.78;2.03;;;;;;;14.92;75.16;101562.13;5044187;28;20397;-75
2022/10/07 00:36:25;;;;;;;5.63;2.55;;;;;;;14.94;75.44;101560.00;5053190;28;20817;-75
2022/10/07 00:38:59;;;;;;;7.03;2.45;;;;;;;14.95;75.13;101556.22;5060921;28;20485;-75
2022/10/07 00:41:27;;;;;;;7.43;2.40;;;;;;;14.97;75.29;101552.16;5032563;28;20471;-75
2022/10/07 00:43:53;;;;;;;15.03;3.10;;;;;;;15.01;75.12;101550.59;5041929;28;20396;-75
2022/10/07 00:46:28;;;;;;;6.33;2.63;;;;;;;15.02;75.24;101541.31;5054581;28;20893;-75
2022/10/07 00:48:57;;;;;;;5.63;2.30;;;;;;;15.01;74.91;101533.38;5035884;28;20400;-75
2022/10/07 00:51:23;;;;;;;5.63;2.47;;;;;;;15.00;75.02;101542.63;5060653;28;20396;-75
2022/10/07 00:53:51;;;;;;;8.32;2.63;;;;;;;15.00;75.10;101532.53;5061681;28;20405;-75
2022/10/07 00:56:17;;;;;;;5.68;2.30;;;;;;;14.97;75.08;101524.84;5051387;28;20412;-75
2022/10/07 00:58:45;;;;;;;5.43;2.50;;;;;;;14.97;75.17;101529.47;5055163;28;20497;-74
2022/10/07 01:01:10;;;;;;;6.80;2.95;;;;;;;15.00;75.16;101520.78;5055837;28;20390;-75
2022/10/07 01:03:36;;;;;;;4.50;2.60;;;;;;;14.97;75.16;101513.94;5055155;28;20389;-75
2022/10/07 01:06:03;;;;;;;12.23;2.63;;;;;;;14.95;75.15;101516.06;5051310;28;20405;-75
2022/10/07 01:08:29;;;;;;;6.83;2.50;;;;;;;14.87;75.33;101502.84;5057697;28;20514;-75
2022/10/07 01:11:14;;;;;;;6.40;3.00;;;;;;;14.85;75.57;101502.25;5058429;28;20444;-74
2022/10/07 01:14:02;;;;;;;8.82;2.50;;;;;;;14.85;75.42;101494.06;5053622;28;20519;-75
2022/10/07 01:16:42;;;;;;;7.07;2.92;;;;;;;14.85;75.27;101494.06;5056827;28;20801;-75
2022/10/07 01:19:30;;;;;;;5.50;2.47;;;;;;;14.84;75.08;101489.69;5048631;28;20888;-75
2022/10/07 01:22:18;;;;;;;7.57;2.63;;;;;;;14.87;74.86;101480.19;5058860;28;20403;-75
2022/10/07 01:25:12;;;;;;;8.85;2.25;;;;;;;14.87;74.92;101481.00;5061267;28;20400;-75
2022/10/07 01:27:42;;;;;;;5.35;2.47;;;;;;;14.86;74.80;101483.97;5056027;28;20417;-75
2022/10/07 01:30:08;;;;;;;5.70;2.30;;;;;;;14.85;74.77;101476.88;5051776;28;20759;-75
2022/10/07 01:32:44;;;;;;;5.38;2.17;;;;;;;14.84;74.77;101477.94;5057306;28;20413;-75
2022/10/07 01:35:17;;;;;;;6.68;2.10;;;;;;;14.81;74.81;101471.09;5037761;28;20401;-74
2022/10/07 01:37:48;;;;;;;7.33;2.33;;;;;;;14.84;74.51;101473.31;5047924;28;20428;-74
2022/10/07 01:40:20;;;;;;;8.03;2.30;;;;;;;14.81;74.56;101468.38;5053620;28;20400;-74
2022/10/07 01:42:47;;;;;;;5.78;2.50;;;;;;;14.82;74.30;101464.53;5045850;28;20935;-75
2022/10/07 01:45:20;;;;;;;4.35;2.17;;;;;;;14.78;74.32;101463.41;5055446;28;20488;-75
2022/10/07 01:47:45;;;;;;;4.80;2.43;;;;;;;14.75;74.40;101458.41;5053838;28;20870;-75
2022/10/07 01:50:12;;;;;;;6.60;2.90;;;;;;;14.76;74.42;101460.09;5060412;28;20408;-74
2022/10/07 01:52:55;;;;;;;7.93;2.88;;;;;;;14.74;74.49;101456.78;5058345;28;20444;-75
2022/10/07 01:55:30;;;;;;;7.38;2.38;;;;;;;14.77;74.52;101456.28;5055644;28;20403;-75
2022/10/07 01:58:33;;;;;;;9.32;1.98;;;;;;;14.78;74.33;101447.03;5050198;28;20430;-75
2022/10/07 02:01:18;;;;;;;5.70;2.53;;;;;;;14.76;74.54;101443.72;5065057;28;20408;-75
2022/10/07 02:04:04;;;;;;;10.68;2.50;;;;;;;14.76;74.77;101445.59;5046524;28;20388;-74
2022/10/07 02:06:41;;;;;;;8.63;2.47;;;;;;;14.77;74.43;101445.38;5047204;28;20402;-75
2022/10/07 02:09:38;;;;;;;7.18;2.08;;;;;;;14.69;74.64;101434.88;5068079;28;20484;-75
2022/10/07 02:12:14;;;;;;;6.70;1.70;;;;;;;14.68;74.52;101437.84;5047419;28;20530;-75
2022/10/07 02:14:50;;;;;;;6.57;2.05;;;;;;;14.69;74.43;101436.75;5071926;28;20474;-75
2022/10/07 02:17:19;;;;;;;8.07;1.67;;;;;;;14.72;74.32;101428.09;5025116;28;20411;-75
2022/10/07 02:19:52;;;;;;;5.80;2.17;;;;;;;14.74;74.16;101423.22;5058718;28;20403;-75
2022/10/07 02:22:19;;;;;;;8.70;2.10;;;;;;;14.74;73.88;101429.50;5060152;28;20403;-75
2022/10/07 02:24:48;;;;;;;6.28;1.95;;;;;;;14.71;73.90;101420.97;5068352;28;20492;-75
2022/10/07 02:27:18;;;;;;;8.15;1.73;;;;;;;14.68;73.46;101421.47;5063741;28;20429;-74
2022/10/07 02:29:45;;;;;;;6.82;2.45;;;;;;;14.64;73.53;101418.44;5053819;28;20441;-75
2022/10/07 02:32:17;;;;;;;6.13;2.00;;;;;;;14.65;73.76;101424.72;5042991;28;20892;-74
2022/10/07 02:34:44;;;;;;;3.28;1.73;;;;;;;14.63;73.16;101422.22;5050489;28;20967;-75
2022/10/07 02:37:18;;;;;;;4.95;1.67;;;;;;;14.63;73.04;101405.00;5052865;28;20413;-75
2022/10/07 02:39:45;;;;;;;8.20;2.10;;;;;;;14.65;72.93;101414.63;5047211;28;20919;-75
2022/10/07 02:42:29;;;;;;;5.82;1.90;;;;;;;14.57;72.90;101406.84;5049722;28;20567;-75
2022/10/07 02:45:01;;;;;;;5.95;1.90;;;;;;;14.59;73.07;101407.41;5053497;28;20400;-74
2022/10/07 02:47:35;;;;;;;4.40;1.70;;;;;;;14.62;72.62;101409.63;5067844;28;20414;-75
2022/10/07 02:50:05;;;;;;;7.28;1.88;;;;;;;14.64;72.36;101401.22;5071328;28;20475;-75
2022/10/07 02:52:32;;;;;;;6.43;2.15;;;;;;;14.59;71.81;101401.16;5056129;28;20421;-75
2022/10/07 02:55:06;;;;;;;8.85;1.88;;;;;;;14.61;72.12;101399.00;5071306;28;20382;-75
2022/10/07 02:57:39;;;;;;;11.38;1.90;;;;;;;14.62;71.83;101396.00;5048384;28;20426;-75
2022/10/07 03:00:06;;;;;;;7.13;1.90;;;;;;;14.61;71.77;101399.00;5064184;28;20802;-75
2022/10/07 03:02:54;;;;;;;5.80;1.67;;;;;;;14.59;71.30;101391.03;5070995;28;20412;-75
2022/10/07 03:05:20;;;;;;;6.15;1.90;;;;;;;14.60;71.35;101389.16;5045863;28;20407;-74
2022/10/07 03:07:48;;;;;;;4.63;1.50;;;;;;;14.60;70.75;101381.78;5056348;28;20445;-75
2022/10/07 03:10:14;;;;;;;4.50;1.55;;;;;;;14.60;70.97;101383.69;5069140;28;20384;-75
2022/10/07 03:12:40;;;;;;;7.97;1.65;;;;;;;14.62;70.71;101385.09;5070751;28;20412;-75
2022/10/07 03:15:10;;;;;;;7.68;1.63;;;;;;;14.63;70.40;101380.47;5067044;28;21573;-75
2022/10/07 03:17:35;;;;;;;5.28;1.55;;;;;;;14.64;70.23;101379.41;5065900;28;20630;-75
2022/10/07 03:20:00;;;;;;;4.00;1.50;;;;;;;14.61;69.53;101383.47;5069547;28;20476;-75
2022/10/07 03:22:26;;;;;;;6.50;1.90;;;;;;;14.59;69.95;101376.59;5055937;28;20901;-75
2022/10/07 03:24:51;;;;;;;10.30;1.87;;;;;;;14.56;69.36;101375.19;5070760;28;20400;-74
2022/10/07 03:27:17;;;;;;;10.03;2.00;;;;;;;14.51;69.16;101380.56;5061476;28;20898;-75
2022/10/07 03:29:42;;;;;;;5.22;1.80;;;;;;;14.52;69.51;101376.78;5069347;28;20461;-75
2022/10/07 03:32:07;;;;;;;8.40;2.33;;;;;;;14.53;69.45;101378.41;5062942;28;20473;-75
2022/10/07 03:34:32;;;;;;;5.73;1.77;;;;;;;14.54;69.62;101361.81;5070649;28;20394;-75
2022/10/07 03:36:58;;;;;;;6.10;1.90;;;;;;;14.54;69.26;101364.53;5066622;28;20400;-74
2022/10/07 03:39:23;;;;;;;3.20;1.67;;;;;;;14.55;69.23;101366.16;5066066;28;20727;-75
2022/10/07 03:41:50;;;;;;;6.27;1.73;;;;;;;14.58;69.11;101374.94;5070635;28;20391;-75
2022/10/07 03:44:16;;;;;;;3.95;1.50;;;;;;;14.57;68.63;101373.28;5070640;28;20428;-75
2022/10/07 03:46:41;;;;;;;3.38;1.25;;;;;;;14.54;68.74;101369.16;5057294;28;20433;-74
2022/10/07 03:49:06;;;;;;;4.63;1.50;;;;;;;14.52;68.92;101371.31;5050973;28;20496;-75
2022/10/07 03:51:32;;;;;;;8.13;1.60;;;;;;;14.48;68.64;101365.53;5068633;28;20424;-75
2022/10/07 03:53:58;;;;;;;4.47;1.40;;;;;;;14.42;68.65;101363.78;5070457;28;20430;-75
2022/10/07 03:56:24;;;;;;;4.50;1.52;;;;;;;14.42;68.07;101365.69;5039568;28;20403;-75
2022/10/07 03:58:49;;;;;;;6.50;1.70;;;;;;;14.43;68.00;101365.44;5060441;28;20460;-75
2022/10/07 04:01:14;;;;;;;2.58;1.20;;;;;;;14.46;68.07;101364.09;5069033;28;20757;-75
2022/10/07 04:03:40;;;;;;;7.27;1.73;;;;;;;14.50;68.28;101366.09;5070275;28;20490;-75
2022/10/07 04:06:05;;;;;;;8.95;2.22;;;;;;;14.47;68.47;101369.31;5067189;28;20446;-75
2022/10/07 04:08:32;;;;;;;6.97;1.60;;;;;;;14.43;68.16;101373.63;5068254;28;20617;-75
2022/10/07 04:10:58;;;;;;;5.28;1.48;;;;;;;14.44;68.54;101367.09;5054081;28;20409;-74
2022/10/07 04:13:24;;;;;;;9.15;1.60;;;;;;;14.47;68.20;101368.50;5052214;28;20413;-75
2022/10/07 04:15:50;;;;;;;4.50;1.52;;;;;;;14.47;68.33;101373.94;5032427;28;20401;-74
2022/10/07 04:18:16;;;;;;;7.15;1.98;;;;;;;14.43;68.65;101361.88;5058095;28;20488;-75
2022/10/07 04:20:41;;;;;;;5.97;1.30;;;;;;;14.44;68.54;101363.53;5062913;28;20588;-75
2022/10/07 04:23:06;;;;;;;6.57;1.57;;;;;;;14.43;68.43;101362.72;5061175;28;20396;-74
2022/10/07 04:25:34;;;;;;;4.90;1.45;;;;;;;14.48;68.28;101353.78;5052607;28;20820;-74
2022/10/07 04:28:05;;;;;;;4.53;2.00;;;;;;;14.49;68.36;101366.34;5061771;28;20410;-74
2022/10/07 04:30:33;;;;;;;4.47;1.20;;;;;;;14.48;68.10;101364.69;5068726;28;20383;-75
2022/10/07 04:33:03;;;;;;;7.30;2.22;;;;;;;14.45;68.23;101357.84;5037738;28;20414;-74
2022/10/07 04:35:29;;;;;;;4.55;1.45;;;;;;;14.42;68.00;101350.13;5049436;28;20815;-75
2022/10/07 04:37:54;;;;;;;7.68;1.60;;;;;;;14.42;68.57;101352.06;5051590;28;20407;-75
2022/10/07 04:40:21;;;;;;;5.65;1.73;;;;;;;14.43;68.28;101340.88;5049150;28;20390;-75
2022/10/07 04:45:32;;;;;;;5.65;1.70;;;;;;;14.41;68.62;101348.50;5050688;28;20392;-74
2022/10/07 04:47:58;;;;;;;6.70;2.10;;;;;;;14.44;68.42;101337.09;5057121;28;20393;-74
2022/10/07 04:50:23;;;;;;;5.97;2.08;;;;;;;14.47;68.39;101347.50;5065434;28;20391;-74
2022/10/07 04:52:50;;;;;;;9.53;1.93;;;;;;;14.48;68.38;101346.44;5073371;28;20878;-74
2022/10/07 04:55:15;;;;;;;5.65;2.03;;;;;;;14.49;68.19;101342.63;5041597;28;20402;-74
2022/10/07 04:57:40;;;;;;;1.90;1.70;;;;;;;14.52;67.99;101341.31;5066421;28;20396;-74
2022/10/07 05:00:08;;;;;;;4.85;2.03;;;;;;;14.49;68.43;101339.06;5067007;28;20915;-74
2022/10/07 05:02:33;;;;;;;7.20;2.38;;;;;;;14.46;68.42;101340.38;5064553;28;20905;-74
2022/10/07 05:04:58;;;;;;;7.40;1.60;;;;;;;14.50;68.30;101338.00;5056530;28;20401;-74
2022/10/07 05:07:24;;;;;;;4.63;2.00;;;;;;;14.51;68.14;101334.19;5066543;28;20757;-74
2022/10/07 05:09:50;;;;;;;4.88;2.30;;;;;;;14.45;68.01;101333.31;5068369;28;20922;-74
2022/10/07 05:12:16;;;;;;;8.27;2.23;;;;;;;14.44;68.35;101331.66;5058098;28;20430;-74
2022/10/07 05:14:42;;;;;;;5.53;1.90;;;;;;;14.43;68.17;101331.88;5039366;28;20409;-75
2022/10/07 05:17:07;;;;;;;5.87;2.03;;;;;;;14.43;68.17;101334.59;5046012;28;20432;-74
2022/10/07 05:19:33;;;;;;;6.50;2.00;;;;;;;14.46;68.24;101329.47;5047835;28;20753;-75
2022/10/07 05:21:58;;;;;;;6.40;2.50;;;;;;;14.45;68.44;101321.56;5052509;28;20426;-75
2022/10/07 05:24:23;;;;;;;6.22;2.10;;;;;;;14.41;68.25;101323.13;5042178;28;20440;-75
2022/10/07 05:26:49;;;;;;;6.97;2.07;;;;;;;14.42;68.67;101331.06;5048574;28;20406;-74
2022/10/07 05:29:14;;;;;;;8.93;2.20;;;;;;;14.40;68.59;101330.47;5055456;28;20433;-75
2022/10/07 05:31:40;;;;;;;8.27;1.97;;;;;;;14.42;68.68;101330.25;5045570;28;21024;-74
2022/10/07 05:34:06;;;;;;;7.97;2.13;;;;;;;14.41;68.16;101323.97;5049860;28;20394;-75
2022/10/07 05:36:32;;;;;;;6.63;2.23;;;;;;;14.41;68.41;101328.59;5041906;28;20389;-74
2022/10/07 05:38:58;;;;;;;7.50;2.20;;;;;;;14.35;67.75;101322.25;5046889;28;20412;-75
2022/10/07 05:41:24;;;;;;;7.27;2.23;;;;;;;14.30;68.10;101324.00;5037370;28;20438;-74
2022/10/07 05:43:49;;;;;;;8.35;2.13;;;;;;;14.25;68.15;101324.78;5036403;28;20540;-74
2022/10/07 05:46:16;;;;;;;6.07;2.53;;;;;;;14.24;68.20;101327.72;5035908;28;20432;-74
2022/10/07 05:48:47;;;;;;;7.47;2.63;;;;;;;14.25;68.06;101323.94;5030901;28;20418;-74
2022/10/07 05:51:13;;;;;;;9.45;2.58;;;;;;;14.28;68.34;101328.91;5033116;28;20503;-74
2022/10/07 05:53:40;;;;;;;13.03;2.87;;;;;;;14.23;68.49;101326.91;5035132;28;20485;-74
2022/10/07 05:56:07;;;;;;;7.07;2.80;;;;;;;14.20;68.40;101323.84;5024428;28;20771;-74
2022/10/07 05:58:35;;;;;;;8.98;3.03;;;;;;;14.21;68.65;101317.31;5032194;28;20415;-74
2022/10/07 06:01:04;;;;;;;8.70;2.88;;;;;;;14.25;68.83;101310.31;5031765;28;20441;-74
2022/10/07 06:03:29;;;;;;;9.73;2.75;;;;;;;14.26;69.07;101320.94;5032317;28;20486;-74
2022/10/07 06:05:54;;;;;;;7.97;2.93;;;;;;;14.19;69.42;101314.03;5032762;28;20874;-74
2022/10/07 06:08:21;;;;;;;8.23;2.85;;;;;;;14.19;69.93;101319.47;5042802;28;20427;-75
2022/10/07 06:13:32;;;;;;;13.25;3.33;;;;;;;14.20;69.81;101318.38;5031375;28;20962;-75
2022/10/07 06:16:02;;;;;;;8.33;3.40;;;;;;;14.19;70.18;101314.03;5031245;28;20403;-74
2022/10/07 06:18:28;;;;;;;9.00;3.40;;;;;;;14.14;69.84;101311.19;5037684;28;20765;-74
2022/10/07 06:20:55;;;;;;;11.93;3.27;;;;;;;14.08;70.42;101313.03;5070006;28;20390;-74
2022/10/07 06:23:20;;;;;;;10.73;3.63;;;;;;;14.08;70.43;101318.47;5041807;28;20396;-74
2022/10/07 06:26:04;;;;;;;11.27;3.80;;;;;;;14.10;70.69;101318.22;5058600;28;20911;-73
2022/10/07 06:28:38;;;;;;;11.60;3.50;;;;;;;14.08;70.69;101317.66;5061223;28;20417;-74
2022/10/07 06:31:12;;;;;;;15.13;4.18;;;;;;;14.07;70.56;101322.28;5050501;28;20403;-74
2022/10/07 06:33:37;;;;;;;11.63;4.50;;;;;;;14.04;71.00;101320.03;5052025;28;20888;-74
2022/10/07 06:36:04;;;;;;;11.67;3.90;;;;;;;14.07;70.74;101315.97;5055224;28;20438;-74
2022/10/07 06:38:29;;;;;;;9.60;3.92;;;;;;;14.03;70.59;101324.66;5065679;28;20498;-74
2022/10/07 06:41:04;;;;;;;11.13;4.40;;;;;;;14.07;71.18;101329.63;5044999;28;20422;-74
2022/10/07 06:43:31;;;;;;;10.10;4.60;;;;;;;14.04;70.71;101333.66;5071485;28;20451;-74
2022/10/07 06:46:00;;;;;;;14.40;4.57;;;;;;;14.03;70.88;101335.56;5054340;28;20397;-74
2022/10/07 06:48:25;;;;;;;9.32;3.92;;;;;;;14.07;70.64;101330.44;5070056;28;20393;-74
2022/10/07 06:50:52;;;;;;;8.68;4.13;;;;;;;14.02;70.87;101324.91;5050482;28;20402;-74
2022/10/07 06:53:18;;;;;;;11.18;4.50;;;;;;;14.02;70.80;101333.94;5061045;28;20416;-75
2022/10/07 06:55:43;;;;;;;11.27;4.33;;;;;;;13.99;71.16;101333.59;5067943;28;20626;-75
2022/10/07 06:58:09;;;;;;;7.95;3.70;;;;;;;14.07;71.16;101335.91;5040506;28;20502;-74
2022/10/07 07:00:35;;;;;;;10.73;4.45;;;;;;;14.02;70.95;101335.81;5071044;28;20406;-74
2022/10/07 07:03:00;;;;;;;9.93;3.95;;;;;;;13.97;71.22;101335.72;5071043;28;20384;-75
2022/10/07 07:05:38;;;;;;;11.20;4.03;;;;;;;14.00;70.57;101341.50;5051338;28;20407;-75
2022/10/07 07:08:04;;;;;;;8.15;3.45;;;;;;;13.96;70.88;101342.25;5040589;28;20423;-74
2022/10/07 07:10:29;;;;;;;10.32;4.10;;;;;;;14.03;70.94;101338.28;5058170;28;20411;-74
2022/10/07 07:12:55;;;;;;;10.83;4.23;;;;;;;14.12;70.62;101343.34;5070492;28;20411;-74
2022/10/07 07:15:21;;;;;;;11.27;3.88;;;;;;;14.14;70.58;101343.91;5044188;28;20396;-75
2022/10/07 07:17:47;;;;;;;13.43;4.20;;;;;;;14.11;70.27;101342.50;5042360;28;20771;-74
2022/10/07 07:20:13;;;;;;;20.85;4.05;;;;;;;14.11;70.21;101336.22;5070402;28;20401;-74
2022/10/07 07:22:39;;;;;;;9.25;4.38;;;;;;;14.04;70.26;101342.66;5052641;28;20391;-74
2022/10/07 07:25:08;;;;;;;9.55;4.25;;;;;;;14.08;70.39;101343.00;5066327;28;20878;-74
2022/10/07 07:27:34;;;;;;;6.20;3.55;;;;;;;14.14;70.23;101333.00;5059224;28;20413;-74
2022/10/07 07:29:59;;;;;;;10.23;3.73;;;;;;;14.10;70.23;101342.75;5056838;28;20404;-74
2022/10/07 07:32:25;;;;;;;11.55;4.07;;;;;;;14.12;70.34;101346.06;5056149;28;20419;-74
2022/10/07 07:34:50;;;;;;;14.43;4.00;;;;;;;14.15;70.13;101338.22;5053984;28;20420;-74
2022/10/07 07:37:16;;;;;;;15.63;4.47;;;;;;;14.22;69.63;101340.78;5065496;28;20402;-74
2022/10/07 07:39:41;;;;;;;9.23;3.85;;;;;;;14.22;70.10;101341.63;5069196;28;20430;-74
2022/10/07 07:42:07;;;;;;;13.43;4.10;;;;;;;14.26;69.92;101339.22;5070493;28;20384;-72
2022/10/07 07:44:33;;;;;;;9.23;3.28;;;;;;;14.35;69.45;101341.31;5058438;28;20405;-74
2022/10/07 07:46:58;;;;;;;8.32;3.45;;;;;;;14.35;69.50;101338.59;5065010;28;20746;-74
2022/10/07 07:49:25;;;;;;;6.50;3.40;;;;;;;14.36;69.62;101337.50;5040826;28;20537;-74
2022/10/07 07:51:51;;;;;;;7.53;3.55;;;;;;;14.43;69.74;101348.25;5054398;28;20411;-74
2022/10/07 07:54:16;;;;;;;8.90;3.70;;;;;;;14.37;69.91;101339.16;5045617;28;20469;-74
2022/10/07 07:56:41;;;;;;;7.97;3.27;;;;;;;14.39;69.68;101336.19;5069078;28;20475;-74
2022/10/07 07:59:07;;;;;;;10.68;3.83;;;;;;;14.43;69.48;101338.16;5040891;28;20411;-74
2022/10/07 08:01:34;;;;;;;14.50;4.07;;;;;;;14.48;69.52;101331.97;5068841;28;20401;-74
2022/10/07 08:04:00;;;;;;;8.48;3.67;;;;;;;14.42;69.67;101335.69;5043800;28;20404;-76
2022/10/07 08:06:26;;;;;;;13.98;4.43;;;;;;;14.43;69.70;101338.16;5051922;28;20476;-76
2022/10/07 08:08:55;;;;;;;11.27;3.88;;;;;;;14.46;69.44;101337.66;5049661;28;20412;-76
2022/10/07 08:11:21;;;;;;;12.35;3.92;;;;;;;14.52;69.57;101328.47;5070034;28;20816;-76
2022/10/07 08:14:02;;;;;;;9.70;3.67;;;;;;;14.64;69.47;101330.28;5069784;28;20392;-75
2022/10/07 08:16:28;;;;;;;11.15;3.88;;;;;;;14.63;68.99;101321.28;5052175;28;20402;-75
2022/10/07 08:18:55;;;;;;;10.82;3.80;;;;;;;14.66;69.13;101328.97;5050162;28;20846;-76
2022/10/07 08:21:23;;;;;;;15.32;4.65;;;;;;;14.70;69.04;101330.13;5042318;28;20418;-76
2022/10/07 08:23:57;;;;;;;7.72;3.65;;;;;;;14.76;69.03;101318.19;5037655;28;20501;-76
2022/10/07 08:26:23;;;;;;;9.07;3.88;;;;;;;14.85;68.71;101321.34;5058098;28;20754;-76
2022/10/07 08:28:48;;;;;;;11.80;4.32;;;;;;;14.91;68.48;101317.59;5058330;28;20409;-76
2022/10/07 08:31:16;;;;;;;11.73;3.83;;;;;;;14.89;68.67;101320.56;5073787;28;20407;-76
2022/10/07 08:33:43;;;;;;;10.57;3.70;;;;;;;14.92;68.19;101317.31;5059760;28;20411;-75
2022/10/07 08:36:14;;;;;;;10.93;3.55;;;;;;;15.01;68.16;101323.19;5065840;28;20387;-76
2022/10/07 08:38:41;;;;;;;11.85;3.88;;;;;;;15.13;68.05;101317.59;5055742;28;20415;-75
2022/10/07 08:41:18;;;;;;;13.25;3.75;;;;;;;15.19;67.93;101317.41;5032107;28;20395;-75
2022/10/07 08:43:48;;;;;;;15.35;4.18;;;;;;;15.20;67.59;101310.88;5048100;28;20401;-76
2022/10/07 08:46:18;;;;;;;10.70;3.55;;;;;;;15.22;67.44;101303.22;5057063;28;20405;-76
2022/10/07 08:48:48;;;;;;;10.32;3.60;;;;;;;15.23;67.35;101310.34;5059798;28;20902;-76
2022/10/07 08:51:24;;;;;;;9.02;3.67;;;;;;;15.27;67.10;101307.94;5073597;28;20388;-75
2022/10/07 08:53:54;;;;;;;11.05;3.67;;;;;;;15.29;67.19;101303.88;5058492;28;20433;-76
2022/10/07 08:56:22;;;;;;;11.60;3.30;;;;;;;15.38;67.25;101299.59;5060567;28;20467;-75
2022/10/07 08:59:09;;;;;;;11.50;4.00;;;;;;;15.43;67.02;101287.91;5062403;28;20809;-75
2022/10/07 09:01:52;;;;;;;11.27;3.80;;;;;;;15.50;67.04;101291.31;5073406;28;20486;-76
2022/10/07 09:04:36;;;;;;;10.88;3.25;;;;;;;15.58;66.84;101288.91;5059936;28;20392;-75
2022/10/07 09:07:03;;;;;;;10.90;4.05;;;;;;;15.55;66.65;101292.16;5070732;28;20504;-76
2022/10/07 09:09:41;;;;;;;10.93;3.67;;;;;;;15.55;66.66;101291.34;5066992;28;20410;-75
2022/10/07 09:12:17;;;;;;;11.27;3.92;;;;;;;15.58;66.69;101288.91;5071628;28;20465;-75
2022/10/07 09:14:47;;;;;;;9.95;3.85;;;;;;;15.69;66.35;101280.81;5059996;28;20391;-75
2022/10/07 09:17:40;;;;;;;9.68;3.75;;;;;;;15.80;66.22;101280.69;5029971;28;20471;-75
2022/10/07 09:20:14;;;;;;;7.57;3.65;;;;;;;15.87;66.05;101278.53;5037144;28;20432;-77
2022/10/07 09:22:44;;;;;;;11.60;4.03;;;;;;;15.91;66.09;101270.63;5059068;28;20419;-74
2022/10/07 09:25:10;;;;;;;11.70;3.90;;;;;;;15.93;66.04;101265.75;5054919;28;20388;-77
2022/10/07 09:27:35;;;;;;;10.43;3.70;;;;;;;16.05;65.94;101264.47;5047859;28;20899;-76
2022/10/07 09:30:00;;;;;;;9.73;3.80;;;;;;;16.32;65.13;101264.41;5054983;28;20392;-74
2022/10/07 09:32:26;;;;;;;11.50;3.63;;;;;;;16.47;64.92;101266.41;5072769;28;20399;-76
2022/10/07 09:34:52;;;;;;;9.43;3.47;;;;;;;16.66;64.70;101261.38;5068236;28;20407;-77
2022/10/07 09:37:23;;;;;;;14.80;4.00;;;;;;;16.90;64.20;101259.81;5071925;28;20406;-77
2022/10/07 09:39:50;;;;;;;10.65;4.10;;;;;;;16.93;63.87;101253.81;5043015;28;20935;-77
2022/10/07 09:42:24;;;;;;;12.05;4.07;;;;;;;16.99;63.90;101252.75;5072641;28;20415;-76
2022/10/07 09:44:54;;;;;;;11.52;3.42;;;;;;;17.09;63.58;101250.88;5058245;28;20491;-76
2022/10/07 09:47:22;;;;;;;11.05;3.55;;;;;;;17.30;63.06;101243.53;5058141;28;20402;-76
2022/10/07 09:49:51;;;;;;;7.40;3.55;;;;;;;17.45;62.68;101245.50;5065148;28;20393;-77
2022/10/07 09:52:30;;;;;;;10.55;3.83;;;;;;;17.54;62.51;101241.94;5053656;28;20461;-77
2022/10/07 09:55:36;;;;;;;9.95;3.50;;;;;;;17.80;62.30;101242.00;5065383;28;20754;-77
2022/10/07 09:58:04;;;;;;;9.43;3.40;;;;;;;18.32;61.26;101245.25;5050978;28;20411;-76
2022/10/07 10:00:30;;;;;;;11.73;3.58;;;;;;;19.17;59.87;101243.31;5054233;28;20391;-77
2022/10/07 10:03:06;;;;;;;7.87;3.27;;;;;;;20.16;57.04;101234.66;5070903;28;20441;-77
2022/10/07 10:05:57;;;;;;;8.88;3.17;;;;;;;20.96;54.53;101237.66;5043611;28;20847;-75
2022/10/07 10:08:27;;;;;;;5.72;2.65;;;;;;;21.81;51.99;101239.47;5033554;28;20415;-75
2022/10/07 10:10:55;;;;;;;7.63;3.37;;;;;;;22.13;51.35;101225.69;5049949;28;20827;-76
2022/10/07 10:13:29;;;;;;;6.28;2.47;;;;;;;22.38;51.00;101228.00;5071877;28;20467;-75
2022/10/07 10:15:54;;;;;;;7.88;3.55;;;;;;;22.74;49.61;101219.88;5048527;28;20392;-75
2022/10/07 10:18:29;;;;;;;7.27;3.17;;;;;;;22.89;49.35;101222.31;5052619;28;20888;-76
2022/10/07 10:20:55;;;;;;;8.30;3.30;;;;;;;22.75;49.52;101221.50;5066508;28;20476;-76
2022/10/07 10:23:32;;;;;;;10.13;2.73;;;;;;;22.73;49.41;101215.47;5069566;28;20467;-76
2022/10/07 10:26:31;;;;;;;6.47;3.20;;;;;;;22.92;48.95;101210.63;5070490;28;20392;-75
2022/10/07 10:29:18;;;;;;;8.70;3.45;;;;;;;23.15;47.58;101209.56;5052754;28;20408;-76
2022/10/07 10:32:01;;;;;;;9.93;3.13;;;;;;;23.78;45.61;101198.41;5071710;28;20862;-75
2022/10/07 10:34:56;;;;;;;13.77;3.57;;;;;;;24.19;43.99;101195.44;5035554;28;20404;-75
2022/10/07 10:37:30;;;;;;;8.52;2.90;;;;;;;24.18;43.76;101192.97;5050090;28;20409;-75
2022/10/07 10:40:29;;;;;;;9.23;3.15;;;;;;;23.53;45.37;101190.75;5052372;28;20506;-74
2022/10/07 10:43:16;;;;;;;4.78;2.50;;;;;;;23.68;45.36;101186.75;5042638;28;20380;-75
2022/10/07 10:46:00;;;;;;;11.93;3.33;;;;;;;24.75;43.10;101180.81;5063786;28;20399;-75
2022/10/07 10:48:51;;;;;;;7.63;3.08;;;;;;;25.10;42.23;101180.91;5042211;28;20429;-75
2022/10/07 10:51:30;;;;;;;5.78;3.40;;;;;;;25.27;41.43;101180.94;5069538;28;20471;-75
2022/10/07 10:54:23;;;;;;;5.93;2.83;;;;;;;24.97;42.31;101179.91;5068513;28;20403;-75
2022/10/07 10:56:57;;;;;;;7.80;3.08;;;;;;;24.43;43.55;101172.91;5047084;28;20474;-75
2022/10/07 10:59:47;;;;;;;9.05;3.20;;;;;;;23.80;44.98;101158.53;5070564;28;20478;-74
2022/10/07 11:02:37;;;;;;;7.65;2.65;;;;;;;23.34;46.29;101159.66;5056284;28;20430;-74
2022/10/07 11:05:16;;;;;;;5.35;2.97;;;;;;;23.04;47.00;101158.41;5071119;28;20396;-74
2022/10/07 11:07:52;;;;;;;7.07;2.80;;;;;;;22.91;47.83;101155.66;5070376;28;20407;-75
2022/10/07 11:10:44;;;;;;;7.07;3.13;;;;;;;22.92;47.68;101149.03;5053072;28;20407;-74
2022/10/07 11:13:35;;;;;;;7.00;2.67;;;;;;;22.87;48.37;101144.41;5056973;28;20510;-75
2022/10/07 11:16:12;;;;;;;9.40;3.15;;;;;;;22.58;48.96;101143.91;5043647;28;20427;-74
2022/10/07 11:18:53;;;;;;;6.33;2.90;;;;;;;22.20;49.56;101144.13;5063791;28;20391;-75
2022/10/07 11:21:33;;;;;;;4.83;2.57;;;;;;;21.92;50.25;101136.13;5068834;28;20396;-75
2022/10/07 11:24:00;;;;;;;8.48;3.17;;;;;;;21.82;50.59;101128.00;5025391;28;20408;-75
2022/10/07 11:26:37;;;;;;;5.57;2.67;;;;;;;21.69;51.21;101129.59;5041877;28;20438;-75
2022/10/07 11:29:30;;;;;;;6.18;3.13;;;;;;;21.55;51.74;101118.53;5045318;28;20397;-75
2022/10/07 11:32:12;;;;;;;6.68;2.85;;;;;;;21.53;52.48;101120.78;5044146;28;20412;-76
2022/10/07 11:34:47;;;;;;;4.28;3.25;;;;;;;21.34;52.99;101110.91;5061831;28;20786;-74
2022/10/07 11:37:26;;;;;;;11.70;3.22;;;;;;;21.21;53.10;101107.78;5066966;28;20384;-76
2022/10/07 11:39:52;;;;;;;6.13;2.83;;;;;;;21.11;53.38;101096.91;5043441;28;20441;-76
2022/10/07 11:42:23;;;;;;;5.97;2.63;;;;;;;21.18;53.21;101093.75;5070496;28;20897;-76
2022/10/07 11:44:55;;;;;;;7.68;2.80;;;;;;;21.12;53.67;101089.47;5034456;28;20777;-76
2022/10/07 11:47:26;;;;;;;7.40;2.70;;;;;;;21.10;54.07;101083.44;5050093;28;20418;-76